NPT4S EGPH-EGNX
Flight info
| Callsign | NPT4S |
|---|---|
| Flight time | 0h 47m |
| Altitude | 27000 |
| Route | GOSAM P600 FENIK L612 NAVSO DCT AKOMU DCT VAMEB UL612 CROFT |
| Aircraft | B738/M-DFILORVWYGJ1/L |
Departure
| Time | 2026-04-21 21:54 |
|---|---|
| Airport | Edinburgh Airport (EGPH) |
Arrival
| Time | 2026-04-21 22:41 |
|---|---|
| Airport | East Midlands Airport (EGNX) |
| Time | Latitude | Longitude | Altitude | Speed | Heading |
|---|---|---|---|---|---|
| 2026-04-21 21:03 | 55.95103 | -3.35252 | 115 ft | 0 kts | 45° |
| 2026-04-21 21:35 | 55.95102 | -3.35252 | 115 ft | 0 kts | 46° |
| 2026-04-21 21:35 | 55.95095 | -3.35266 | 113 ft | 3 kts | 48° |
| 2026-04-21 21:35 | 55.95084 | -3.35294 | 111 ft | 3 kts | 80° |
| 2026-04-21 21:36 | 55.95084 | -3.35328 | 111 ft | 3 kts | 108° |
| 2026-04-21 21:36 | 55.95089 | -3.35348 | 112 ft | 1 kts | 118° |
| 2026-04-21 21:40 | 55.95086 | -3.35342 | 111 ft | 2 kts | 129° |
| 2026-04-21 21:40 | 55.95065 | -3.35337 | 113 ft | 5 kts | 192° |
| 2026-04-21 21:40 | 55.95025 | -3.35368 | 115 ft | 7 kts | 208° |
| 2026-04-21 21:40 | 55.94984 | -3.35432 | 114 ft | 8 kts | 255° |
| 2026-04-21 21:41 | 55.95004 | -3.35529 | 114 ft | 9 kts | 298° |
| 2026-04-21 21:41 | 55.95036 | -3.35634 | 113 ft | 10 kts | 298° |
| 2026-04-21 21:41 | 55.95057 | -3.35751 | 114 ft | 10 kts | 257° |
| 2026-04-21 21:41 | 55.95057 | -3.35871 | 112 ft | 10 kts | 295° |
| 2026-04-21 21:42 | 55.95088 | -3.35979 | 114 ft | 10 kts | 294° |
| 2026-04-21 21:42 | 55.95110 | -3.36086 | 115 ft | 2 kts | 287° |
| 2026-04-21 21:42 | 55.95111 | -3.36090 | 115 ft | 0 kts | 287° |
| 2026-04-21 21:43 | 55.95112 | -3.36099 | 115 ft | 2 kts | 287° |
| 2026-04-21 21:44 | 55.95123 | -3.36159 | 114 ft | 8 kts | 287° |
| 2026-04-21 21:44 | 55.95134 | -3.36275 | 115 ft | 11 kts | 253° |
| 2026-04-21 21:44 | 55.95095 | -3.36399 | 113 ft | 13 kts | 239° |
| 2026-04-21 21:44 | 55.95044 | -3.36549 | 114 ft | 16 kts | 238° |
| 2026-04-21 21:45 | 55.94979 | -3.36741 | 113 ft | 20 kts | 239° |
| 2026-04-21 21:45 | 55.94902 | -3.36967 | 114 ft | 22 kts | 239° |
| 2026-04-21 21:45 | 55.94825 | -3.37195 | 113 ft | 21 kts | 239° |
| 2026-04-21 21:45 | 55.94750 | -3.37416 | 114 ft | 20 kts | 239° |
| 2026-04-21 21:46 | 55.94677 | -3.37631 | 114 ft | 20 kts | 239° |
| 2026-04-21 21:46 | 55.94607 | -3.37838 | 115 ft | 19 kts | 239° |
| 2026-04-21 21:46 | 55.94539 | -3.38039 | 113 ft | 19 kts | 239° |
| 2026-04-21 21:46 | 55.94472 | -3.38233 | 113 ft | 18 kts | 239° |
| 2026-04-21 21:47 | 55.94410 | -3.38419 | 114 ft | 17 kts | 239° |
| 2026-04-21 21:47 | 55.94348 | -3.38600 | 114 ft | 17 kts | 239° |
| 2026-04-21 21:47 | 55.94295 | -3.38758 | 113 ft | 11 kts | 239° |
| 2026-04-21 21:47 | 55.94289 | -3.38856 | 115 ft | 7 kts | 304° |
| 2026-04-21 21:48 | 55.94313 | -3.38893 | 113 ft | 0 kts | 325° |
| 2026-04-21 21:51 | 55.94314 | -3.38894 | 113 ft | 1 kts | 325° |
| 2026-04-21 21:52 | 55.94333 | -3.38916 | 115 ft | 6 kts | 328° |
| 2026-04-21 21:52 | 55.94387 | -3.38969 | 112 ft | 11 kts | 339° |
| 2026-04-21 21:52 | 55.94424 | -3.38945 | 112 ft | 4 kts | 52° |
| 2026-04-21 21:52 | 55.94427 | -3.38935 | 113 ft | 0 kts | 57° |
| 2026-04-21 21:53 | 55.94447 | -3.38878 | 111 ft | 25 kts | 58° |
| 2026-04-21 21:53 | 55.94679 | -3.38195 | 112 ft | 101 kts | 59° |
| 2026-04-21 21:53 | 55.95137 | -3.36832 | 287 ft | 144 kts | 59° |
| 2026-04-21 21:54 | 55.95639 | -3.35274 | 1057 ft | 149 kts | 61° |
| 2026-04-21 21:54 | 55.96281 | -3.33803 | 1848 ft | 157 kts | 45° |
| 2026-04-21 21:54 | 55.97164 | -3.32453 | 2369 ft | 175 kts | 44° |
| 2026-04-21 21:54 | 55.98067 | -3.31006 | 3288 ft | 173 kts | 46° |
| 2026-04-21 21:55 | 55.98978 | -3.29543 | 4105 ft | 178 kts | 46° |
| 2026-04-21 21:55 | 56.00026 | -3.28301 | 4846 ft | 191 kts | 22° |
| 2026-04-21 21:55 | 56.01390 | -3.28182 | 5551 ft | 205 kts | 352° |
| 2026-04-21 21:55 | 56.02690 | -3.29354 | 6048 ft | 217 kts | 322° |
| 2026-04-21 21:56 | 56.03486 | -3.31674 | 6422 ft | 229 kts | 280° |
| 2026-04-21 21:56 | 56.03319 | -3.34476 | 7032 ft | 227 kts | 250° |
| 2026-04-21 21:56 | 56.02990 | -3.36241 | 7490 ft | 226 kts | 250° |
| 2026-04-21 21:56 | 56.02522 | -3.39012 | 7812 ft | 244 kts | 252° |
| 2026-04-21 21:57 | 56.02043 | -3.42003 | 8279 ft | 255 kts | 252° |
| 2026-04-21 21:57 | 56.01555 | -3.45143 | 8734 ft | 270 kts | 253° |
| 2026-04-21 21:57 | 56.01067 | -3.48515 | 9144 ft | 289 kts | 254° |
| 2026-04-21 21:57 | 56.00408 | -3.53256 | 9962 ft | 303 kts | 254° |
| 2026-04-21 21:58 | 56.00059 | -3.55742 | 10481 ft | 306 kts | 254° |
| 2026-04-21 21:58 | 55.99537 | -3.59429 | 11023 ft | 318 kts | 254° |
| 2026-04-21 21:58 | 55.98972 | -3.63384 | 11293 ft | 338 kts | 254° |
| 2026-04-21 21:58 | 55.98374 | -3.67550 | 11719 ft | 352 kts | 254° |
| 2026-04-21 21:59 | 55.97761 | -3.71823 | 12418 ft | 357 kts | 254° |
| 2026-04-21 21:59 | 55.97142 | -3.76123 | 13241 ft | 359 kts | 254° |
| 2026-04-21 21:59 | 55.96517 | -3.80461 | 14077 ft | 361 kts | 254° |
| 2026-04-21 21:59 | 55.95845 | -3.84797 | 14822 ft | 364 kts | 247° |
| 2026-04-21 22:00 | 55.94476 | -3.88532 | 15542 ft | 361 kts | 220° |
| 2026-04-21 22:00 | 55.92350 | -3.90811 | 16358 ft | 355 kts | 196° |
| 2026-04-21 22:00 | 55.89946 | -3.91643 | 17132 ft | 353 kts | 180° |
| 2026-04-21 22:00 | 55.87515 | -3.91234 | 17867 ft | 352 kts | 162° |
| 2026-04-21 22:01 | 55.85211 | -3.89902 | 18609 ft | 354 kts | 159° |
| 2026-04-21 22:01 | 55.82882 | -3.88391 | 19261 ft | 358 kts | 158° |
| 2026-04-21 22:01 | 55.80515 | -3.86810 | 19938 ft | 360 kts | 158° |
| 2026-04-21 22:01 | 55.78189 | -3.85254 | 20539 ft | 364 kts | 158° |
| 2026-04-21 22:02 | 55.75796 | -3.83666 | 21109 ft | 369 kts | 158° |
| 2026-04-21 22:02 | 55.73366 | -3.82071 | 21662 ft | 375 kts | 158° |
| 2026-04-21 22:02 | 55.70908 | -3.80472 | 22354 ft | 375 kts | 158° |
| 2026-04-21 22:02 | 55.68457 | -3.78889 | 23083 ft | 375 kts | 159° |
| 2026-04-21 22:03 | 55.66007 | -3.77314 | 23900 ft | 373 kts | 159° |
| 2026-04-21 22:03 | 55.63587 | -3.75763 | 24538 ft | 373 kts | 159° |
| 2026-04-21 22:03 | 55.61147 | -3.74204 | 25166 ft | 371 kts | 159° |
| 2026-04-21 22:03 | 55.58736 | -3.72666 | 25892 ft | 368 kts | 159° |
| 2026-04-21 22:04 | 55.56310 | -3.71119 | 26341 ft | 373 kts | 159° |
| 2026-04-21 22:04 | 55.53864 | -3.69562 | 26883 ft | 374 kts | 159° |
| 2026-04-21 22:04 | 55.51418 | -3.68007 | 27478 ft | 374 kts | 159° |
| 2026-04-21 22:04 | 55.48960 | -3.66447 | 27478 ft | 373 kts | 159° |
| 2026-04-21 22:05 | 55.46519 | -3.64899 | 27514 ft | 373 kts | 160° |
| 2026-04-21 22:05 | 55.44087 | -3.63360 | 27510 ft | 380 kts | 161° |
| 2026-04-21 22:05 | 55.41577 | -3.61773 | 27518 ft | 385 kts | 160° |
| 2026-04-21 22:05 | 55.39049 | -3.60178 | 27513 ft | 384 kts | 160° |
| 2026-04-21 22:06 | 55.36555 | -3.58605 | 27504 ft | 379 kts | 160° |
| 2026-04-21 22:06 | 55.34081 | -3.57047 | 27502 ft | 377 kts | 161° |
| 2026-04-21 22:06 | 55.31597 | -3.55485 | 27508 ft | 380 kts | 161° |
| 2026-04-21 22:06 | 55.29102 | -3.53918 | 27512 ft | 381 kts | 160° |
| 2026-04-21 22:07 | 55.26592 | -3.52344 | 27506 ft | 383 kts | 161° |
| 2026-04-21 22:07 | 55.24077 | -3.50768 | 27506 ft | 383 kts | 161° |
| 2026-04-21 22:07 | 55.21599 | -3.49219 | 27504 ft | 384 kts | 161° |
| 2026-04-21 22:07 | 55.19079 | -3.47644 | 27485 ft | 384 kts | 161° |
| 2026-04-21 22:08 | 55.16558 | -3.46073 | 27495 ft | 385 kts | 161° |
| 2026-04-21 22:08 | 55.14030 | -3.44501 | 27502 ft | 386 kts | 161° |
| 2026-04-21 22:08 | 55.11495 | -3.42926 | 27504 ft | 386 kts | 161° |
| 2026-04-21 22:08 | 55.08961 | -3.41352 | 27494 ft | 387 kts | 161° |
| 2026-04-21 22:09 | 55.06415 | -3.39773 | 27488 ft | 387 kts | 161° |
| 2026-04-21 22:09 | 55.03868 | -3.38196 | 27488 ft | 388 kts | 161° |
| 2026-04-21 22:09 | 55.01330 | -3.36628 | 27490 ft | 388 kts | 161° |
| 2026-04-21 22:09 | 54.98788 | -3.35058 | 27478 ft | 388 kts | 162° |
| 2026-04-21 22:10 | 54.96245 | -3.33490 | 27479 ft | 388 kts | 161° |
| 2026-04-21 22:10 | 54.93701 | -3.31922 | 27466 ft | 389 kts | 163° |
| 2026-04-21 22:10 | 54.91140 | -3.30347 | 27472 ft | 391 kts | 163° |
| 2026-04-21 22:10 | 54.88597 | -3.28785 | 27480 ft | 393 kts | 163° |
| 2026-04-21 22:11 | 54.86009 | -3.27198 | 27484 ft | 396 kts | 163° |
| 2026-04-21 22:11 | 54.83406 | -3.25602 | 27480 ft | 398 kts | 163° |
| 2026-04-21 22:11 | 54.80799 | -3.24006 | 27483 ft | 393 kts | 162° |
| 2026-04-21 22:11 | 54.78235 | -3.22437 | 27469 ft | 386 kts | 162° |
| 2026-04-21 22:12 | 54.75708 | -3.20892 | 27468 ft | 386 kts | 162° |
| 2026-04-21 22:12 | 54.73170 | -3.19344 | 27484 ft | 388 kts | 162° |
| 2026-04-21 22:12 | 54.70615 | -3.17788 | 27455 ft | 390 kts | 162° |
| 2026-04-21 22:12 | 54.68044 | -3.16225 | 27452 ft | 393 kts | 163° |
| 2026-04-21 22:13 | 54.65490 | -3.14675 | 27467 ft | 395 kts | 163° |
| 2026-04-21 22:13 | 54.62886 | -3.13096 | 27468 ft | 398 kts | 163° |
| 2026-04-21 22:13 | 54.60264 | -3.11508 | 27465 ft | 400 kts | 163° |
| 2026-04-21 22:13 | 54.57627 | -3.09913 | 27469 ft | 401 kts | 163° |
| 2026-04-21 22:14 | 54.54984 | -3.08317 | 27457 ft | 401 kts | 163° |
| 2026-04-21 22:14 | 54.52347 | -3.06725 | 27461 ft | 401 kts | 163° |
| 2026-04-21 22:14 | 54.49746 | -3.05158 | 27441 ft | 400 kts | 163° |
| 2026-04-21 22:14 | 54.47094 | -3.03561 | 27446 ft | 398 kts | 163° |
| 2026-04-21 22:15 | 54.44488 | -3.01995 | 27436 ft | 397 kts | 163° |
| 2026-04-21 22:15 | 54.41902 | -3.00443 | 27448 ft | 397 kts | 163° |
| 2026-04-21 22:15 | 54.39292 | -2.98880 | 27448 ft | 397 kts | 163° |
| 2026-04-21 22:15 | 54.36700 | -2.97330 | 27462 ft | 398 kts | 163° |
| 2026-04-21 22:16 | 54.34074 | -2.95761 | 27457 ft | 400 kts | 163° |
| 2026-04-21 22:16 | 54.31435 | -2.94187 | 27459 ft | 401 kts | 163° |
| 2026-04-21 22:16 | 54.28798 | -2.92616 | 27459 ft | 402 kts | 163° |
| 2026-04-21 22:16 | 54.26154 | -2.91042 | 27438 ft | 403 kts | 163° |
| 2026-04-21 22:17 | 54.23501 | -2.89465 | 27441 ft | 403 kts | 163° |
| 2026-04-21 22:17 | 54.20853 | -2.87893 | 27423 ft | 403 kts | 163° |
| 2026-04-21 22:17 | 54.18200 | -2.86320 | 27428 ft | 404 kts | 164° |
| 2026-04-21 22:17 | 54.15537 | -2.84744 | 27434 ft | 404 kts | 164° |
| 2026-04-21 22:18 | 54.12874 | -2.83170 | 27441 ft | 405 kts | 164° |
| 2026-04-21 22:18 | 54.10246 | -2.81619 | 27428 ft | 405 kts | 164° |
| 2026-04-21 22:18 | 54.07569 | -2.80041 | 27434 ft | 406 kts | 164° |
| 2026-04-21 22:18 | 54.04894 | -2.78466 | 27427 ft | 407 kts | 164° |
| 2026-04-21 22:19 | 54.02216 | -2.76892 | 27427 ft | 407 kts | 164° |
| 2026-04-21 22:19 | 53.99534 | -2.75317 | 27418 ft | 408 kts | 164° |
| 2026-04-21 22:19 | 53.96850 | -2.73743 | 27419 ft | 407 kts | 164° |
| 2026-04-21 22:19 | 53.94173 | -2.72175 | 27406 ft | 407 kts | 164° |
| 2026-04-21 22:20 | 53.91483 | -2.70602 | 27416 ft | 408 kts | 164° |
| 2026-04-21 22:20 | 53.88835 | -2.69056 | 27420 ft | 408 kts | 164° |
| 2026-04-21 22:20 | 53.86149 | -2.67489 | 27423 ft | 409 kts | 164° |
| 2026-04-21 22:20 | 53.83454 | -2.65920 | 27421 ft | 409 kts | 164° |
| 2026-04-21 22:21 | 53.80752 | -2.64349 | 27177 ft | 414 kts | 164° |
| 2026-04-21 22:21 | 53.78017 | -2.62762 | 26623 ft | 416 kts | 164° |
| 2026-04-21 22:21 | 53.75274 | -2.61171 | 26027 ft | 418 kts | 164° |
| 2026-04-21 22:21 | 53.72509 | -2.59569 | 25466 ft | 419 kts | 163° |
| 2026-04-21 22:22 | 53.69750 | -2.57971 | 24863 ft | 419 kts | 163° |
| 2026-04-21 22:22 | 53.66981 | -2.56370 | 24255 ft | 421 kts | 163° |
| 2026-04-21 22:22 | 53.64212 | -2.54773 | 23642 ft | 420 kts | 163° |
| 2026-04-21 22:22 | 53.61498 | -2.52943 | 22968 ft | 421 kts | 152° |
| 2026-04-21 22:23 | 53.59028 | -2.50362 | 22313 ft | 414 kts | 146° |
| 2026-04-21 22:23 | 53.56677 | -2.47630 | 21623 ft | 408 kts | 145° |
| 2026-04-21 22:23 | 53.54371 | -2.44897 | 20951 ft | 401 kts | 145° |
| 2026-04-21 22:23 | 53.52150 | -2.42265 | 20356 ft | 391 kts | 144° |
| 2026-04-21 22:24 | 53.49958 | -2.39679 | 19862 ft | 379 kts | 144° |
| 2026-04-21 22:24 | 53.47823 | -2.37179 | 19296 ft | 369 kts | 144° |
| 2026-04-21 22:24 | 53.45736 | -2.34766 | 18747 ft | 358 kts | 144° |
| 2026-04-21 22:24 | 53.43700 | -2.32438 | 18104 ft | 349 kts | 145° |
| 2026-04-21 22:25 | 53.41712 | -2.30176 | 17475 ft | 342 kts | 145° |
| 2026-04-21 22:25 | 53.39758 | -2.27963 | 16878 ft | 335 kts | 144° |
| 2026-04-21 22:25 | 53.37843 | -2.25812 | 16288 ft | 328 kts | 144° |
| 2026-04-21 22:25 | 53.35955 | -2.23723 | 15725 ft | 322 kts | 145° |
| 2026-04-21 22:26 | 53.34120 | -2.21709 | 15179 ft | 317 kts | 145° |
| 2026-04-21 22:26 | 53.32290 | -2.19713 | 14660 ft | 311 kts | 145° |
| 2026-04-21 22:26 | 53.30489 | -2.17763 | 14170 ft | 305 kts | 144° |
| 2026-04-21 22:26 | 53.28716 | -2.15860 | 13647 ft | 300 kts | 145° |
| 2026-04-21 22:27 | 53.26959 | -2.13983 | 13115 ft | 299 kts | 145° |
| 2026-04-21 22:27 | 53.25203 | -2.12113 | 12659 ft | 299 kts | 145° |
| 2026-04-21 22:27 | 53.23444 | -2.10241 | 12221 ft | 300 kts | 145° |
| 2026-04-21 22:27 | 53.21689 | -2.08372 | 11797 ft | 300 kts | 145° |
| 2026-04-21 22:28 | 53.19929 | -2.06494 | 11370 ft | 300 kts | 145° |
| 2026-04-21 22:28 | 53.18169 | -2.04616 | 10950 ft | 300 kts | 145° |
| 2026-04-21 22:28 | 53.16411 | -2.02738 | 10541 ft | 299 kts | 145° |
| 2026-04-21 22:28 | 53.14687 | -2.00901 | 10094 ft | 295 kts | 145° |
| 2026-04-21 22:29 | 53.13023 | -1.99135 | 9767 ft | 283 kts | 145° |
| 2026-04-21 22:29 | 53.11399 | -1.97423 | 9524 ft | 270 kts | 145° |
| 2026-04-21 22:29 | 53.09846 | -1.95800 | 9298 ft | 258 kts | 145° |
| 2026-04-21 22:29 | 53.08354 | -1.94255 | 9075 ft | 247 kts | 145° |
| 2026-04-21 22:30 | 53.06917 | -1.92783 | 8823 ft | 238 kts | 145° |
| 2026-04-21 22:30 | 53.05525 | -1.91369 | 8556 ft | 231 kts | 145° |
| 2026-04-21 22:30 | 53.04173 | -1.90012 | 8276 ft | 222 kts | 145° |
| 2026-04-21 22:30 | 53.02883 | -1.88732 | 7920 ft | 215 kts | 145° |
| 2026-04-21 22:31 | 53.01619 | -1.87496 | 7612 ft | 207 kts | 145° |
| 2026-04-21 22:31 | 53.00397 | -1.86318 | 7304 ft | 200 kts | 145° |
| 2026-04-21 22:31 | 52.99208 | -1.85189 | 7041 ft | 195 kts | 145° |
| 2026-04-21 22:31 | 52.98042 | -1.84101 | 6789 ft | 190 kts | 145° |
| 2026-04-21 22:32 | 52.96893 | -1.83044 | 6531 ft | 187 kts | 145° |
| 2026-04-21 22:32 | 52.95757 | -1.82012 | 6264 ft | 184 kts | 145° |
| 2026-04-21 22:32 | 52.94814 | -1.80731 | 6011 ft | 170 kts | 116° |
| 2026-04-21 22:32 | 52.94250 | -1.79053 | 5792 ft | 165 kts | 118° |
| 2026-04-21 22:33 | 52.93643 | -1.77456 | 5608 ft | 161 kts | 118° |
| 2026-04-21 22:33 | 52.93058 | -1.75923 | 5442 ft | 157 kts | 118° |
| 2026-04-21 22:33 | 52.92477 | -1.74397 | 5248 ft | 155 kts | 117° |
| 2026-04-21 22:33 | 52.91902 | -1.72887 | 5071 ft | 154 kts | 118° |
| 2026-04-21 22:34 | 52.91334 | -1.71394 | 4886 ft | 152 kts | 117° |
| 2026-04-21 22:34 | 52.90771 | -1.69913 | 4697 ft | 151 kts | 117° |
| 2026-04-21 22:34 | 52.90211 | -1.68441 | 4516 ft | 151 kts | 117° |
| 2026-04-21 22:34 | 52.89651 | -1.66965 | 4339 ft | 151 kts | 117° |
| 2026-04-21 22:35 | 52.89090 | -1.65490 | 4157 ft | 152 kts | 117° |
| 2026-04-21 22:35 | 52.88525 | -1.64002 | 3985 ft | 152 kts | 117° |
| 2026-04-21 22:35 | 52.87960 | -1.62516 | 3805 ft | 153 kts | 116° |
| 2026-04-21 22:35 | 52.87392 | -1.61022 | 3619 ft | 154 kts | 116° |
| 2026-04-21 22:36 | 52.86262 | -1.58053 | 3225 ft | 151 kts | 116° |
| 2026-04-21 22:36 | 52.85700 | -1.56578 | 3019 ft | 148 kts | 116° |
| 2026-04-21 22:36 | 52.85161 | -1.55168 | 2849 ft | 146 kts | 116° |
| 2026-04-21 22:37 | 52.84616 | -1.53740 | 2644 ft | 147 kts | 116° |
| 2026-04-21 22:37 | 52.84070 | -1.52307 | 2483 ft | 147 kts | 116° |
| 2026-04-21 22:37 | 52.83523 | -1.50876 | 2301 ft | 147 kts | 116° |
| 2026-04-21 22:37 | 52.82984 | -1.49416 | 2131 ft | 148 kts | 109° |
| 2026-04-21 22:38 | 52.82909 | -1.47786 | 2005 ft | 142 kts | 81° |
| 2026-04-21 22:38 | 52.82894 | -1.46190 | 1797 ft | 136 kts | 95° |
| 2026-04-21 22:38 | 52.82897 | -1.44648 | 1629 ft | 131 kts | 84° |
| 2026-04-21 22:38 | 52.82928 | -1.43216 | 1441 ft | 121 kts | 87° |
| 2026-04-21 22:39 | 52.82944 | -1.41865 | 1269 ft | 117 kts | 86° |
| 2026-04-21 22:39 | 52.82953 | -1.40510 | 1071 ft | 119 kts | 86° |
| 2026-04-21 22:39 | 52.82986 | -1.39069 | 912 ft | 129 kts | 85° |
| 2026-04-21 22:39 | 52.83011 | -1.37579 | 739 ft | 130 kts | 84° |
| 2026-04-21 22:40 | 52.83040 | -1.36078 | 542 ft | 132 kts | 85° |
| 2026-04-21 22:40 | 52.83068 | -1.34541 | 333 ft | 134 kts | 85° |
| 2026-04-21 22:40 | 52.83096 | -1.33092 | 305 ft | 110 kts | 89° |
| 2026-04-21 22:40 | 52.83114 | -1.32078 | 305 ft | 66 kts | 88° |
| 2026-04-21 22:41 | 52.83124 | -1.31480 | 307 ft | 40 kts | 88° |
| 2026-04-21 22:41 | 52.83078 | -1.31319 | 304 ft | 14 kts | 180° |
| 2026-04-21 22:41 | 52.82988 | -1.31318 | 300 ft | 13 kts | 191° |
| 2026-04-21 22:41 | 52.82955 | -1.31446 | 302 ft | 13 kts | 268° |
| 2026-04-21 22:42 | 52.82953 | -1.31578 | 300 ft | 9 kts | 268° |
| 2026-04-21 22:42 | 52.82944 | -1.31682 | 302 ft | 9 kts | 237° |
| 2026-04-21 22:42 | 52.82892 | -1.31737 | 303 ft | 9 kts | 230° |
| 2026-04-21 22:42 | 52.82882 | -1.31835 | 300 ft | 9 kts | 267° |
| 2026-04-21 22:43 | 52.82881 | -1.31925 | 301 ft | 7 kts | 268° |
| 2026-04-21 22:43 | 52.82860 | -1.31979 | 302 ft | 4 kts | 187° |
| 2026-04-21 22:43 | 52.82842 | -1.31979 | 300 ft | 3 kts | 179° |
| 2026-04-21 22:43 | 52.82824 | -1.31978 | 302 ft | 2 kts | 178° |
| 2026-04-21 22:44 | 52.82808 | -1.31978 | 301 ft | 2 kts | 178° |
| 2026-04-21 22:44 | 52.82805 | -1.31977 | 301 ft | 1 kts | 178° |